Dunton, Colorado
Current Conditions -  °F | °C
As of 12:53 AM on Sunday 26 Oct 2014 (Local Time) from KCEZ Reporting Station
Clear Clear  
Wind Chill: 42°   Ceiling: Unl
Heat Index: 44°   Visibility: 10mi
Dew Point: 36°   Wind: 5mph
Humidity: 73%   Direction: 100°E
Pressure: 30.17"   Gusts: NA
Location:  37.5429°N, 108.35°W
Report Text: KCEZ 260653Z AUTO 10004KT 10SM CLR 07/02 A3017 RMK AO2 SLP159 T00670022 402501011
Loading
Personal Weather Stations






























Interactive Weather Map
Tropical Storm Tracking
New forecast layout! Learn more

10-Day Weather Forecast

Advertisements
Track Severe Weather on mobile